Morro Bay, California
Current Conditions -  °F | °C
As of 1:56 AM on Thursday 29 Jan 2015 (Local Time) from KSBP Reporting Station
Clear Clear  
Wind Chill: 45°   Ceiling: Unl
Heat Index: 47°   Visibility: 7mi
Dew Point: 44°   Wind: 5mph
Humidity: 90%   Direction: 150°SSE
Pressure: 30.09"   Gusts: NA
Location:  35.37°N, 120.84°W
Report Text: KSBP 290956Z AUTO 15004KT 7SM CLR 08/07 A3009 RMK AO2 SLP189 T00830067
Loading
Personal Weather Stations






























Interactive Weather Map New forecast layout! Learn more

10-Day Weather Forecast

Advertisements
Track Severe Weather on mobile